Nearby METAR Reports

 

EBAW - Antwerpen, Belgium
Distance from station: NW 22km
Updated: 2024-06-13 06:20

 Wind from SSE
Wind: SSE 7 km/h
Temperature: 8°C
Wind Chill: 7°C
Dew Point: 6°C
Humidity: 87%
Barometer: 1018 hPa
Visibility: 10 km
2024/06/13 04:20 EBAW 130420Z AUTO 15004KT 9999 // VV/// 08/06 Q1018
EBBR - Brussel, Belgium
Distance from station: SW 24km
Updated: 2024-06-13 06:20
Clear
Clear
 Wind from S
Wind: S 7 km/h
Temperature: 8°C
Wind Chill: 7°C
Dew Point: 6°C
Humidity: 87%
Barometer: 1018 hPa
Summary: Clear
Visibility: greater than 10 km
2024/06/13 04:20 EBBR 130420Z 18004KT CAVOK 08/06 Q1018 NOSIG
 
EBDT - Schaffen, Belgium
Distance from station: ESE 26km
Updated: 2024-06-13 06:25
Mostly cloudy
Mostly cloudy
 Wind from S
Wind: S 6 km/h
Temperature: 8°C
Dew Point: 8°C
Humidity: 100%
Barometer: 1018 hPa
Clouds: Mostly cloudy
Visibility: 10 km
Cloud details: Few Clouds 2713 m
Mostly cloudy 4572 m
2024/06/13 04:25 EBDT 130425Z AUTO 17003KT 9999 FEW089/// BKN150/// 08/08 Q1018 BLU
EBBE - Beauvechain, Belgium
Distance from station: S 36km
Updated: 2024-06-13 06:25
Clear
Clear
 Wind from S
Wind: S 7 km/h
Temperature: 9°C
Wind Chill: 8°C
Dew Point: 7°C
Humidity: 87%
Barometer: 1018 hPa
Clouds: Clear
Visibility: 10 km
2024/06/13 04:25 EBBE 130425Z AUTO 19004KT 9999 NCD 09/07 Q1018 BLU
 
EHWO - Woensdrecht Rnla, Netherlands
Distance from station: NNW 50km
Updated: 2024-06-13 06:25
Clear
Clear
 Wind from SSE
Wind: SSE 7 km/h
Temperature: 9°C
Wind Chill: 8°C
Dew Point: 7°C
Humidity: 87%
Barometer: 1018 hPa
Clouds: Clear
Visibility: 10 km
2024/06/13 04:25 EHWO 130425Z AUTO 16004KT 130V190 9999 NCD 09/07 Q1018 BLU
EBBL - Kleine-Brogel, Belgium
Distance from station: ENE 54km
Updated: 2024-06-13 06:25
Overcast
Overcast
 Wind from varies
Wind: varies 4 km/h
Temperature: 10°C
Dew Point: 7°C
Humidity: 82%
Barometer: 1018 hPa
Clouds: Overcast
Visibility: 10 km
Cloud details: Overcast 3353 m
2024/06/13 04:25 EBBL 130425Z AUTO VRB02KT 9999 OVC110/// 10/07 Q1018 BLU
 
EHGR - Gilze-Rijen Rnla, Netherlands
Distance from station: NNE 57km
Updated: 2024-06-13 06:25
Overcast
Overcast
 Wind from S
Wind: S 9 km/h
Temperature: 10°C
Wind Chill: 9°C
Dew Point: 8°C
Humidity: 88%
Barometer: 1018 hPa
Clouds: Overcast
Visibility: 10 km
Cloud details: Overcast 3048 m
2024/06/13 04:25 EHGR 130425Z AUTO 19005KT 140V230 9999 OVC100 10/08 Q1018 BLU
EHEH - Eindhoven Rnlafb, Netherlands
Distance from station: NE 63km
Updated: 2024-06-13 06:33
Overcast
Overcast
 Wind from S
Wind: S 6 km/h
Temperature: 9°C
Dew Point: 8°C
Humidity: 94%
Barometer: 1018 hPa
Clouds: Overcast
Visibility: 10 km
Cloud details: Overcast 3048 m
2024/06/13 04:33 EHEH 130433Z AUTO 19003KT 9999 OVC100 09/08 Q1018 BLU NOSIG
 
EBCI - Charleroi, Belgium
Distance from station: SSW 70km
Updated: 2024-06-13 06:20
Clear
Clear
 Wind from S
Wind: S 6 km/h
Temperature: 7°C
Dew Point: 5°C
Humidity: 87%
Barometer: 1019 hPa
Summary: Clear
Visibility: greater than 10 km
2024/06/13 04:20 EBCI 130420Z 18003KT CAVOK 07/05 Q1019 NOSIG
EBLG - Bierset, Belgium
Distance from station: SE 72km
Updated: 2024-06-13 06:20
Clear
Clear
 Wind from SSE
Wind: SSE 6 km/h
Temperature: 9°C
Dew Point: 6°C
Humidity: 82%
Barometer: 1019 hPa
Summary: Clear
Visibility: greater than 10 km
2024/06/13 04:20 EBLG 130420Z 15003KT 120V200 CAVOK 09/06 Q1019 NOSIG
Benelux Weer Netwerk cwop awekas hwa wcloud pwsweather wow wow